createdAt,value
2022-08-26T00:04:38.184Z,4.90
2022-08-26T00:09:41.553Z,5.20
2022-08-26T00:14:50.402Z,5.10
2022-08-26T00:19:53.808Z,4.50
2022-08-26T00:24:57.016Z,4.30
2022-08-26T00:30:09.971Z,5.50
2022-08-26T00:35:14.615Z,5.70
2022-08-26T00:40:27.223Z,5.90
2022-08-26T00:45:45.441Z,5.50
2022-08-26T00:50:56.749Z,5.20
2022-08-26T00:56:11.785Z,5.20
2022-08-26T01:01:18.737Z,5.60
2022-08-26T01:06:27.524Z,5.80
2022-08-26T01:11:32.705Z,5.10
2022-08-26T01:16:37.373Z,5.70
2022-08-26T01:22:22.800Z,4.50
2022-08-26T01:27:33.627Z,4.20
2022-08-26T01:32:38.855Z,4.60
2022-08-26T01:37:42.382Z,4.60
2022-08-26T01:42:47.000Z,4.80
2022-08-26T01:47:56.770Z,5.20
2022-08-26T01:53:07.779Z,4.40
2022-08-26T01:58:28.679Z,4.80
2022-08-26T02:03:34.059Z,5.20
2022-08-26T02:08:48.130Z,4.40
2022-08-26T02:14:03.099Z,5.40
2022-08-26T02:19:17.233Z,4.40
2022-08-26T02:24:29.419Z,4.10
2022-08-26T02:29:41.690Z,4.10
2022-08-26T02:34:47.066Z,4.70
2022-08-26T02:39:50.337Z,4.60
2022-08-26T02:44:56.334Z,5.30
2022-08-26T02:50:00.616Z,4.10
2022-08-26T02:55:07.260Z,3.90
2022-08-26T03:00:14.937Z,3.70
2022-08-26T03:10:25.977Z,4.10
2022-08-26T03:15:29.523Z,5.00
2022-08-26T03:20:34.307Z,3.70
2022-08-26T03:25:38.080Z,3.40
2022-08-26T03:30:44.874Z,3.20
2022-08-26T03:35:50.575Z,4.00
2022-08-26T03:40:54.214Z,4.10
2022-08-26T03:45:57.587Z,4.60
2022-08-26T03:51:03.138Z,4.20
2022-08-26T03:56:06.970Z,3.60
2022-08-26T04:01:12.500Z,3.40
2022-08-26T04:06:17.115Z,3.80
2022-08-26T04:11:24.897Z,10.20
2022-08-26T04:16:29.649Z,5.30
2022-08-26T04:21:33.652Z,5.70
2022-08-26T04:26:39.583Z,4.50
2022-08-26T04:31:48.304Z,4.70
2022-08-26T04:36:52.184Z,4.80
2022-08-26T04:41:55.995Z,5.80
2022-08-26T04:47:02.949Z,4.90
2022-08-26T04:52:06.519Z,5.10
2022-08-26T04:57:11.085Z,4.60
2022-08-26T05:02:14.472Z,4.60
2022-08-26T05:07:17.742Z,4.50
2022-08-26T05:12:21.200Z,5.40
2022-08-26T05:17:24.617Z,5.70
2022-08-26T05:22:27.822Z,5.90
2022-08-26T05:27:30.924Z,5.70
2022-08-26T05:32:36.181Z,7.10
2022-08-26T05:37:39.523Z,6.00
2022-08-26T05:42:43.007Z,7.50
2022-08-26T05:47:46.996Z,8.60
2022-08-26T05:52:51.404Z,7.00
2022-08-26T05:57:54.579Z,7.40
2022-08-26T06:02:58.831Z,7.10
2022-08-26T06:08:14.618Z,7.30
2022-08-26T06:13:31.871Z,6.90
2022-08-26T06:18:42.515Z,8.90
2022-08-26T06:24:07.465Z,8.10
2022-08-26T06:29:10.765Z,7.80
2022-08-26T06:34:18.991Z,8.40
2022-08-26T06:39:22.199Z,9.60
2022-08-26T06:44:26.227Z,8.20
2022-08-26T06:49:29.447Z,8.60
2022-08-26T06:54:33.190Z,8.90
2022-08-26T06:59:36.571Z,9.00
2022-08-26T07:04:40.218Z,6.80
2022-08-26T07:09:43.706Z,8.70
2022-08-26T07:14:47.455Z,7.70
2022-08-26T07:19:51.965Z,8.10
2022-08-26T07:24:56.109Z,7.50
2022-08-26T07:30:00.534Z,6.80
2022-08-26T07:35:06.821Z,7.50
2022-08-26T07:40:10.832Z,6.90
2022-08-26T07:45:15.184Z,6.80
2022-08-26T07:50:18.692Z,7.00
2022-08-26T07:55:23.133Z,7.50
2022-08-26T08:00:26.746Z,6.50
2022-08-26T08:05:33.914Z,7.10
2022-08-26T08:10:38.398Z,6.40
2022-08-26T08:15:42.631Z,6.60
2022-08-26T08:20:59.300Z,6.80
2022-08-26T08:26:11.212Z,5.60
2022-08-26T08:31:55.751Z,6.30
2022-08-26T08:36:53.279Z,6.00
2022-08-26T08:42:25.087Z,5.70
2022-08-26T08:48:00.965Z,5.70
2022-08-26T08:58:33.409Z,5.30
2022-08-26T09:04:28.544Z,6.30
2022-08-26T09:09:49.368Z,5.60
2022-08-26T09:15:11.731Z,5.20
2022-08-26T09:20:43.472Z,4.60
2022-08-26T09:25:57.597Z,5.00
2022-08-26T09:31:34.292Z,4.80
2022-08-26T09:36:45.330Z,4.60
2022-08-26T09:42:01.638Z,4.80
2022-08-26T09:47:08.846Z,4.80
2022-08-26T09:52:26.928Z,4.50
2022-08-26T09:57:35.336Z,4.40
2022-08-26T10:02:47.746Z,4.50
2022-08-26T10:07:53.700Z,4.40
2022-08-26T10:13:16.595Z,4.50
2022-08-26T10:18:33.672Z,4.50
2022-08-26T10:23:50.359Z,4.70
2022-08-26T10:29:15.889Z,4.00
2022-08-26T10:34:21.160Z,4.70
2022-08-26T10:39:57.312Z,4.40
2022-08-26T10:45:15.107Z,4.40
2022-08-26T10:50:31.702Z,4.30
2022-08-26T11:01:18.988Z,3.60
2022-08-26T11:06:31.575Z,4.50
2022-08-26T11:11:41.007Z,4.10
2022-08-26T11:16:52.236Z,4.40
2022-08-26T11:22:24.284Z,4.50
2022-08-26T11:27:27.655Z,4.00
2022-08-26T11:32:34.867Z,4.30
2022-08-26T11:37:48.602Z,4.00
2022-08-26T11:42:59.838Z,4.10
2022-08-26T11:48:23.919Z,4.20
2022-08-26T11:53:30.383Z,3.80
2022-08-26T11:58:35.684Z,3.60
2022-08-26T12:03:51.425Z,4.20
2022-08-26T12:09:01.690Z,3.70
2022-08-26T12:14:15.579Z,3.80
2022-08-26T12:19:32.900Z,3.70
2022-08-26T12:24:44.022Z,3.40
2022-08-26T12:30:13.840Z,3.60
2022-08-26T12:35:21.244Z,4.10
2022-08-26T12:40:37.597Z,3.20
2022-08-26T12:45:55.180Z,3.80
2022-08-26T12:51:00.642Z,3.70
2022-08-26T12:56:41.485Z,3.80
2022-08-26T13:01:45.836Z,3.30
2022-08-26T13:06:49.225Z,3.10
2022-08-26T13:11:55.402Z,3.20
2022-08-26T13:16:58.710Z,3.60
2022-08-26T13:22:02.227Z,5.10
2022-08-26T13:27:08.823Z,3.40
2022-08-26T13:32:12.638Z,3.00
2022-08-26T13:37:16.875Z,3.00
2022-08-26T13:42:21.643Z,3.10
2022-08-26T13:47:27.639Z,3.30
2022-08-26T13:52:31.538Z,3.00
2022-08-26T13:57:35.029Z,2.80
2022-08-26T14:02:38.246Z,4.20
2022-08-26T14:07:41.600Z,2.90
2022-08-26T14:12:46.087Z,2.90
2022-08-26T14:17:50.669Z,3.10
2022-08-26T14:23:13.292Z,3.20
2022-08-26T14:28:18.704Z,3.30
2022-08-26T14:33:29.102Z,3.30
2022-08-26T14:38:34.188Z,3.50
2022-08-26T14:43:43.237Z,3.10
2022-08-26T14:48:46.586Z,3.40
2022-08-26T14:54:10.376Z,3.10
2022-08-26T14:59:25.557Z,3.40
2022-08-26T15:04:30.478Z,3.30
2022-08-26T15:09:37.917Z,3.10
2022-08-26T15:14:41.196Z,3.20
2022-08-26T15:19:44.610Z,3.20
2022-08-26T15:24:48.060Z,3.20
2022-08-26T15:29:57.064Z,3.10
2022-08-26T15:35:00.574Z,3.40
2022-08-26T15:40:07.130Z,3.40
2022-08-26T15:45:11.506Z,3.20
2022-08-26T15:50:29.913Z,3.00
2022-08-26T15:55:33.173Z,3.10
2022-08-26T16:00:38.117Z,3.50
2022-08-26T16:05:43.873Z,3.70
2022-08-26T16:15:54.051Z,3.20
2022-08-26T16:21:12.460Z,3.70
2022-08-26T16:26:22.259Z,3.60
2022-08-26T16:31:25.610Z,3.90
2022-08-26T16:36:29.258Z,3.60
2022-08-26T16:41:33.498Z,4.00
2022-08-26T16:46:36.919Z,3.60
2022-08-26T16:51:40.722Z,3.90
2022-08-26T16:56:44.343Z,5.20
2022-08-26T17:01:47.691Z,3.70
2022-08-26T17:06:51.171Z,3.70
2022-08-26T17:11:54.995Z,4.00
2022-08-26T17:16:58.205Z,3.80
2022-08-26T17:22:01.512Z,4.50
2022-08-26T17:27:09.120Z,5.00
2022-08-26T17:32:12.468Z,5.20
2022-08-26T17:37:17.068Z,4.80
2022-08-26T17:42:20.396Z,11.10
2022-08-26T17:47:24.004Z,4.90
2022-08-26T17:52:29.046Z,5.40
2022-08-26T17:57:32.790Z,5.00
2022-08-26T18:02:44.271Z,5.30
2022-08-26T18:07:48.718Z,4.70
2022-08-26T18:12:52.161Z,4.80
2022-08-26T18:17:55.331Z,5.00
2022-08-26T18:22:58.544Z,5.20
2022-08-26T18:28:01.750Z,4.60
2022-08-26T18:33:05.092Z,4.90
2022-08-26T18:38:11.014Z,5.30
2022-08-26T18:43:14.780Z,5.70
2022-08-26T18:48:17.962Z,4.30
2022-08-26T18:53:21.486Z,5.50
2022-08-26T18:58:25.609Z,5.60
2022-08-26T19:03:29.026Z,5.30
2022-08-26T19:08:32.475Z,6.10
2022-08-26T19:13:36.567Z,6.20
2022-08-26T19:18:41.447Z,6.10
2022-08-26T19:23:45.033Z,7.50
2022-08-26T19:28:49.696Z,7.40
2022-08-26T19:33:53.293Z,18.30
2022-08-26T19:38:57.124Z,12.30
2022-08-26T19:44:02.804Z,9.50
2022-08-26T19:49:07.942Z,8.70
2022-08-26T19:54:11.251Z,7.20
2022-08-26T19:59:15.486Z,7.20
2022-08-26T20:04:18.724Z,9.50
2022-08-26T20:09:22.000Z,9.60
2022-08-26T20:14:27.678Z,6.80
2022-08-26T20:19:49.841Z,6.40
2022-08-26T20:24:53.346Z,5.80
2022-08-26T20:29:58.005Z,5.70
2022-08-26T20:35:01.926Z,7.90
2022-08-26T20:40:09.069Z,9.20
2022-08-26T20:50:15.945Z,11.30
2022-08-26T20:55:20.110Z,9.70
2022-08-26T21:00:26.974Z,9.00
2022-08-26T21:05:32.267Z,8.70
2022-08-26T21:10:36.352Z,8.10
2022-08-26T21:15:40.172Z,7.90
2022-08-26T21:20:43.587Z,7.80
2022-08-26T21:25:47.708Z,6.70
2022-08-26T21:30:51.025Z,6.60
2022-08-26T21:35:55.565Z,6.00
2022-08-26T21:41:03.218Z,5.60
2022-08-26T21:46:17.650Z,5.60
2022-08-26T21:51:24.795Z,5.70
2022-08-26T21:56:31.787Z,4.90
2022-08-26T22:01:36.372Z,5.50
2022-08-26T22:06:51.072Z,5.50
2022-08-26T22:11:57.047Z,6.20
2022-08-26T22:17:00.894Z,5.10
2022-08-26T22:22:04.283Z,5.80
2022-08-26T22:27:07.850Z,5.30
2022-08-26T22:32:11.478Z,5.80
2022-08-26T22:37:14.964Z,5.80
2022-08-26T22:42:18.236Z,5.30
2022-08-26T22:47:21.753Z,5.30
2022-08-26T22:52:25.376Z,5.20
2022-08-26T22:57:28.686Z,5.00
2022-08-26T23:02:31.933Z,5.30
2022-08-26T23:07:36.739Z,6.00
2022-08-26T23:12:40.290Z,6.10
2022-08-26T23:17:43.568Z,6.70
2022-08-26T23:22:46.896Z,5.80
2022-08-26T23:27:50.595Z,5.50
2022-08-26T23:32:54.836Z,5.60
2022-08-26T23:37:58.939Z,5.60
2022-08-26T23:43:06.760Z,5.80
2022-08-26T23:48:10.179Z,5.70
2022-08-26T23:53:20.375Z,6.10
2022-08-26T23:58:24.194Z,6.10
